sensor_id;sensor_type;location;lat;lon;timestamp;P1;durP1;ratioP1;P2;durP2;ratioP2
70800;SDS011;59616;52.170;5.386;2023-04-25T00:01:06;16.02;;;2.72;;
70800;SDS011;59616;52.170;5.386;2023-04-25T00:03:35;26.88;;;4.43;;
70800;SDS011;59616;52.170;5.386;2023-04-25T00:06:02;13.48;;;3.00;;
70800;SDS011;59616;52.170;5.386;2023-04-25T00:08:29;17.83;;;3.53;;
70800;SDS011;59616;52.170;5.386;2023-04-25T00:10:57;12.45;;;2.60;;
70800;SDS011;59616;52.170;5.386;2023-04-25T00:13:25;13.80;;;3.15;;
70800;SDS011;59616;52.170;5.386;2023-04-25T00:15:52;13.10;;;3.47;;
70800;SDS011;59616;52.170;5.386;2023-04-25T00:18:20;16.00;;;3.97;;
70800;SDS011;59616;52.170;5.386;2023-04-25T00:20:47;18.35;;;3.78;;
70800;SDS011;59616;52.170;5.386;2023-04-25T00:23:17;17.40;;;4.13;;
70800;SDS011;59616;52.170;5.386;2023-04-25T00:25:44;15.18;;;3.20;;
70800;SDS011;59616;52.170;5.386;2023-04-25T00:28:12;16.02;;;4.25;;
70800;SDS011;59616;52.170;5.386;2023-04-25T00:30:39;22.50;;;4.35;;
70800;SDS011;59616;52.170;5.386;2023-04-25T00:33:07;17.90;;;3.33;;
70800;SDS011;59616;52.170;5.386;2023-04-25T00:35:35;15.68;;;3.42;;
70800;SDS011;59616;52.170;5.386;2023-04-25T00:38:02;19.17;;;3.28;;
70800;SDS011;59616;52.170;5.386;2023-04-25T00:40:29;10.98;;;3.00;;
70800;SDS011;59616;52.170;5.386;2023-04-25T00:42:56;15.10;;;3.38;;
70800;SDS011;59616;52.170;5.386;2023-04-25T00:45:27;11.77;;;3.15;;
70800;SDS011;59616;52.170;5.386;2023-04-25T00:47:56;20.65;;;3.67;;
70800;SDS011;59616;52.170;5.386;2023-04-25T00:50:24;11.60;;;2.53;;
70800;SDS011;59616;52.170;5.386;2023-04-25T00:52:51;11.65;;;2.65;;
70800;SDS011;59616;52.170;5.386;2023-04-25T00:55:18;16.50;;;3.05;;
70800;SDS011;59616;52.170;5.386;2023-04-25T00:57:46;16.58;;;2.80;;
70800;SDS011;59616;52.170;5.386;2023-04-25T01:00:13;11.98;;;2.45;;
70800;SDS011;59616;52.170;5.386;2023-04-25T01:02:42;17.42;;;2.63;;
70800;SDS011;59616;52.170;5.386;2023-04-25T01:05:11;13.93;;;2.78;;
70800;SDS011;59616;52.170;5.386;2023-04-25T01:07:38;13.63;;;2.72;;
70800;SDS011;59616;52.170;5.386;2023-04-25T01:10:07;10.35;;;2.83;;
70800;SDS011;59616;52.170;5.386;2023-04-25T01:12:34;12.38;;;2.65;;
70800;SDS011;59616;52.170;5.386;2023-04-25T01:15:01;10.20;;;2.58;;
70800;SDS011;59616;52.170;5.386;2023-04-25T01:17:29;16.30;;;2.63;;
70800;SDS011;59616;52.170;5.386;2023-04-25T01:19:57;14.20;;;3.08;;
70800;SDS011;59616;52.170;5.386;2023-04-25T01:22:24;14.43;;;2.55;;
70800;SDS011;59616;52.170;5.386;2023-04-25T01:24:52;14.73;;;2.90;;
70800;SDS011;59616;52.170;5.386;2023-04-25T01:27:20;11.02;;;2.53;;
70800;SDS011;59616;52.170;5.386;2023-04-25T01:29:48;12.02;;;2.85;;
70800;SDS011;59616;52.170;5.386;2023-04-25T01:32:17;9.55;;;2.50;;
70800;SDS011;59616;52.170;5.386;2023-04-25T01:34:45;14.60;;;3.15;;
70800;SDS011;59616;52.170;5.386;2023-04-25T01:37:13;15.23;;;3.28;;
70800;SDS011;59616;52.170;5.386;2023-04-25T01:39:40;12.45;;;2.95;;
70800;SDS011;59616;52.170;5.386;2023-04-25T01:42:07;13.43;;;2.92;;
70800;SDS011;59616;52.170;5.386;2023-04-25T01:44:35;11.80;;;2.40;;
70800;SDS011;59616;52.170;5.386;2023-04-25T01:47:04;10.52;;;2.92;;
70800;SDS011;59616;52.170;5.386;2023-04-25T01:49:31;14.48;;;3.03;;
70800;SDS011;59616;52.170;5.386;2023-04-25T01:51:59;9.77;;;2.45;;
70800;SDS011;59616;52.170;5.386;2023-04-25T01:54:26;8.95;;;2.13;;
70800;SDS011;59616;52.170;5.386;2023-04-25T01:56:53;7.53;;;2.47;;
70800;SDS011;59616;52.170;5.386;2023-04-25T01:59:24;15.52;;;2.70;;
70800;SDS011;59616;52.170;5.386;2023-04-25T02:02:11;11.25;;;2.75;;
70800;SDS011;59616;52.170;5.386;2023-04-25T02:04:39;8.60;;;2.00;;
70800;SDS011;59616;52.170;5.386;2023-04-25T02:07:07;14.85;;;2.75;;
70800;SDS011;59616;52.170;5.386;2023-04-25T02:09:46;13.52;;;2.63;;
70800;SDS011;59616;52.170;5.386;2023-04-25T02:12:15;11.15;;;2.10;;
70800;SDS011;59616;52.170;5.386;2023-04-25T02:17:49;13.00;;;2.50;;
70800;SDS011;59616;52.170;5.386;2023-04-25T02:20:20;12.55;;;2.33;;
70800;SDS011;59616;52.170;5.386;2023-04-25T02:22:47;10.90;;;2.38;;
70800;SDS011;59616;52.170;5.386;2023-04-25T02:25:15;15.07;;;2.58;;
70800;SDS011;59616;52.170;5.386;2023-04-25T02:27:42;20.00;;;2.67;;
70800;SDS011;59616;52.170;5.386;2023-04-25T02:30:09;17.00;;;3.10;;
70800;SDS011;59616;52.170;5.386;2023-04-25T02:32:37;13.38;;;2.20;;
70800;SDS011;59616;52.170;5.386;2023-04-25T02:35:05;18.70;;;2.95;;
70800;SDS011;59616;52.170;5.386;2023-04-25T02:37:33;11.63;;;2.65;;
70800;SDS011;59616;52.170;5.386;2023-04-25T02:40:01;8.35;;;2.13;;
70800;SDS011;59616;52.170;5.386;2023-04-25T02:42:30;10.85;;;2.50;;
70800;SDS011;59616;52.170;5.386;2023-04-25T02:44:58;14.23;;;2.30;;
70800;SDS011;59616;52.170;5.386;2023-04-25T02:47:25;10.90;;;2.55;;
70800;SDS011;59616;52.170;5.386;2023-04-25T02:49:53;15.02;;;2.80;;
70800;SDS011;59616;52.170;5.386;2023-04-25T02:52:20;8.00;;;1.92;;
70800;SDS011;59616;52.170;5.386;2023-04-25T02:54:55;12.65;;;2.65;;
70800;SDS011;59616;52.170;5.386;2023-04-25T02:57:23;11.65;;;2.55;;
70800;SDS011;59616;52.170;5.386;2023-04-25T02:59:51;11.82;;;2.33;;
70800;SDS011;59616;52.170;5.386;2023-04-25T03:02:18;13.55;;;2.40;;
70800;SDS011;59616;52.170;5.386;2023-04-25T03:04:46;12.27;;;2.75;;
70800;SDS011;59616;52.170;5.386;2023-04-25T03:07:14;18.50;;;2.58;;
70800;SDS011;59616;52.170;5.386;2023-04-25T03:09:41;14.90;;;2.72;;
70800;SDS011;59616;52.170;5.386;2023-04-25T03:12:08;9.93;;;2.47;;
70800;SDS011;59616;52.170;5.386;2023-04-25T03:14:36;10.23;;;2.45;;
70800;SDS011;59616;52.170;5.386;2023-04-25T03:17:03;11.57;;;2.70;;
70800;SDS011;59616;52.170;5.386;2023-04-25T03:19:31;14.35;;;2.78;;
70800;SDS011;59616;52.170;5.386;2023-04-25T03:21:58;13.55;;;2.35;;
70800;SDS011;59616;52.170;5.386;2023-04-25T03:24:26;12.20;;;2.38;;
70800;SDS011;59616;52.170;5.386;2023-04-25T03:26:53;11.98;;;2.67;;
70800;SDS011;59616;52.170;5.386;2023-04-25T03:29:20;12.70;;;2.67;;
70800;SDS011;59616;52.170;5.386;2023-04-25T03:31:51;11.02;;;2.47;;
70800;SDS011;59616;52.170;5.386;2023-04-25T03:34:18;13.30;;;2.30;;
70800;SDS011;59616;52.170;5.386;2023-04-25T03:36:47;15.98;;;2.85;;
70800;SDS011;59616;52.170;5.386;2023-04-25T03:39:15;12.63;;;2.28;;
70800;SDS011;59616;52.170;5.386;2023-04-25T03:41:47;10.50;;;2.65;;
70800;SDS011;59616;52.170;5.386;2023-04-25T03:44:16;14.75;;;2.25;;
70800;SDS011;59616;52.170;5.386;2023-04-25T03:46:43;13.50;;;2.40;;
70800;SDS011;59616;52.170;5.386;2023-04-25T03:49:11;9.95;;;2.35;;
70800;SDS011;59616;52.170;5.386;2023-04-25T03:51:53;11.00;;;2.10;;
70800;SDS011;59616;52.170;5.386;2023-04-25T03:54:21;11.98;;;2.10;;
70800;SDS011;59616;52.170;5.386;2023-04-25T03:59:24;11.55;;;2.10;;
70800;SDS011;59616;52.170;5.386;2023-04-25T04:01:52;12.95;;;2.40;;
70800;SDS011;59616;52.170;5.386;2023-04-25T04:04:20;10.10;;;2.10;;
70800;SDS011;59616;52.170;5.386;2023-04-25T04:06:47;13.82;;;2.75;;
70800;SDS011;59616;52.170;5.386;2023-04-25T04:09:20;15.93;;;2.92;;
70800;SDS011;59616;52.170;5.386;2023-04-25T04:11:47;12.00;;;2.22;;
70800;SDS011;59616;52.170;5.386;2023-04-25T04:14:15;11.20;;;2.17;;
70800;SDS011;59616;52.170;5.386;2023-04-25T04:16:44;10.73;;;2.28;;
70800;SDS011;59616;52.170;5.386;2023-04-25T04:19:12;15.55;;;2.72;;
70800;SDS011;59616;52.170;5.386;2023-04-25T04:21:44;10.45;;;2.50;;
70800;SDS011;59616;52.170;5.386;2023-04-25T04:24:11;11.88;;;2.45;;
70800;SDS011;59616;52.170;5.386;2023-04-25T04:26:48;11.93;;;2.00;;
70800;SDS011;59616;52.170;5.386;2023-04-25T04:29:43;8.57;;;1.60;;
70800;SDS011;59616;52.170;5.386;2023-04-25T04:32:18;16.05;;;1.90;;
70800;SDS011;59616;52.170;5.386;2023-04-25T04:34:46;16.30;;;1.77;;
70800;SDS011;59616;52.170;5.386;2023-04-25T04:37:15;11.18;;;1.77;;
70800;SDS011;59616;52.170;5.386;2023-04-25T04:39:42;8.82;;;2.00;;
70800;SDS011;59616;52.170;5.386;2023-04-25T04:42:20;7.93;;;1.63;;
70800;SDS011;59616;52.170;5.386;2023-04-25T04:44:53;7.82;;;1.67;;
70800;SDS011;59616;52.170;5.386;2023-04-25T04:47:45;6.35;;;1.40;;
70800;SDS011;59616;52.170;5.386;2023-04-25T04:50:28;8.13;;;1.70;;
70800;SDS011;59616;52.170;5.386;2023-04-25T04:53:06;5.30;;;1.33;;
70800;SDS011;59616;52.170;5.386;2023-04-25T04:55:44;8.93;;;1.90;;
70800;SDS011;59616;52.170;5.386;2023-04-25T04:58:47;7.10;;;1.48;;
70800;SDS011;59616;52.170;5.386;2023-04-25T05:01:38;7.50;;;1.50;;
70800;SDS011;59616;52.170;5.386;2023-04-25T05:04:19;9.43;;;1.92;;
70800;SDS011;59616;52.170;5.386;2023-04-25T05:07:06;6.70;;;1.55;;
70800;SDS011;59616;52.170;5.386;2023-04-25T05:10:00;8.52;;;1.45;;
70800;SDS011;59616;52.170;5.386;2023-04-25T05:12:41;7.47;;;1.42;;
70800;SDS011;59616;52.170;5.386;2023-04-25T05:15:12;9.02;;;1.67;;
70800;SDS011;59616;52.170;5.386;2023-04-25T05:18:14;10.93;;;1.70;;
70800;SDS011;59616;52.170;5.386;2023-04-25T05:20:51;7.47;;;1.63;;
70800;SDS011;59616;52.170;5.386;2023-04-25T05:23:38;8.55;;;1.88;;
70800;SDS011;59616;52.170;5.386;2023-04-25T05:26:31;10.50;;;1.80;;
70800;SDS011;59616;52.170;5.386;2023-04-25T05:29:12;7.22;;;1.70;;
70800;SDS011;59616;52.170;5.386;2023-04-25T05:32:00;9.43;;;2.05;;
70800;SDS011;59616;52.170;5.386;2023-04-25T05:34:28;6.30;;;1.73;;
70800;SDS011;59616;52.170;5.386;2023-04-25T05:36:58;8.45;;;1.70;;
70800;SDS011;59616;52.170;5.386;2023-04-25T05:39:26;11.32;;;1.70;;
70800;SDS011;59616;52.170;5.386;2023-04-25T05:42:10;8.35;;;1.67;;
70800;SDS011;59616;52.170;5.386;2023-04-25T05:45:03;8.35;;;1.60;;
70800;SDS011;59616;52.170;5.386;2023-04-25T05:47:38;8.18;;;1.80;;
70800;SDS011;59616;52.170;5.386;2023-04-25T05:50:14;5.60;;;1.30;;
70800;SDS011;59616;52.170;5.386;2023-04-25T05:52:51;8.48;;;1.98;;
70800;SDS011;59616;52.170;5.386;2023-04-25T05:55:50;11.50;;;2.20;;
70800;SDS011;59616;52.170;5.386;2023-04-25T05:58:20;9.02;;;1.70;;
70800;SDS011;59616;52.170;5.386;2023-04-25T06:00:48;7.53;;;1.50;;
70800;SDS011;59616;52.170;5.386;2023-04-25T06:03:16;7.72;;;1.60;;
70800;SDS011;59616;52.170;5.386;2023-04-25T06:05:46;8.35;;;1.60;;
70800;SDS011;59616;52.170;5.386;2023-04-25T06:08:14;6.45;;;1.48;;
70800;SDS011;59616;52.170;5.386;2023-04-25T06:10:41;5.63;;;1.55;;
70800;SDS011;59616;52.170;5.386;2023-04-25T06:13:09;5.43;;;1.45;;
70800;SDS011;59616;52.170;5.386;2023-04-25T06:15:36;6.70;;;1.42;;
70800;SDS011;59616;52.170;5.386;2023-04-25T06:18:04;4.45;;;1.30;;
70800;SDS011;59616;52.170;5.386;2023-04-25T06:20:32;9.93;;;1.77;;
70800;SDS011;59616;52.170;5.386;2023-04-25T06:23:00;9.98;;;1.75;;
70800;SDS011;59616;52.170;5.386;2023-04-25T06:25:38;14.55;;;1.90;;
70800;SDS011;59616;52.170;5.386;2023-04-25T06:28:05;6.68;;;1.40;;
70800;SDS011;59616;52.170;5.386;2023-04-25T06:30:33;8.10;;;1.17;;
70800;SDS011;59616;52.170;5.386;2023-04-25T06:33:05;8.80;;;1.60;;
70800;SDS011;59616;52.170;5.386;2023-04-25T06:35:34;9.70;;;1.65;;
70800;SDS011;59616;52.170;5.386;2023-04-25T06:38:02;6.82;;;1.10;;
70800;SDS011;59616;52.170;5.386;2023-04-25T06:40:30;7.30;;;1.45;;
70800;SDS011;59616;52.170;5.386;2023-04-25T06:42:58;9.43;;;1.80;;
70800;SDS011;59616;52.170;5.386;2023-04-25T06:45:42;11.10;;;2.00;;
70800;SDS011;59616;52.170;5.386;2023-04-25T06:48:13;9.65;;;1.33;;
70800;SDS011;59616;52.170;5.386;2023-04-25T06:50:41;7.70;;;1.17;;
70800;SDS011;59616;52.170;5.386;2023-04-25T06:53:11;8.15;;;1.35;;
70800;SDS011;59616;52.170;5.386;2023-04-25T06:55:40;8.57;;;1.40;;
70800;SDS011;59616;52.170;5.386;2023-04-25T06:58:21;5.57;;;1.17;;
70800;SDS011;59616;52.170;5.386;2023-04-25T07:00:55;7.45;;;1.45;;
70800;SDS011;59616;52.170;5.386;2023-04-25T07:03:24;5.00;;;1.25;;
70800;SDS011;59616;52.170;5.386;2023-04-25T07:05:57;6.43;;;1.35;;
70800;SDS011;59616;52.170;5.386;2023-04-25T07:08:24;7.53;;;1.42;;
70800;SDS011;59616;52.170;5.386;2023-04-25T07:10:51;9.32;;;1.60;;
70800;SDS011;59616;52.170;5.386;2023-04-25T07:13:19;10.05;;;1.65;;
70800;SDS011;59616;52.170;5.386;2023-04-25T07:15:46;9.43;;;1.23;;
70800;SDS011;59616;52.170;5.386;2023-04-25T07:18:16;8.65;;;1.48;;
70800;SDS011;59616;52.170;5.386;2023-04-25T07:20:43;7.95;;;1.23;;
70800;SDS011;59616;52.170;5.386;2023-04-25T07:23:11;9.57;;;1.58;;
70800;SDS011;59616;52.170;5.386;2023-04-25T07:25:39;7.45;;;1.50;;
70800;SDS011;59616;52.170;5.386;2023-04-25T07:28:07;7.53;;;1.20;;
70800;SDS011;59616;52.170;5.386;2023-04-25T07:30:35;10.50;;;1.67;;
70800;SDS011;59616;52.170;5.386;2023-04-25T07:33:03;11.55;;;1.45;;
70800;SDS011;59616;52.170;5.386;2023-04-25T07:35:30;3.65;;;1.05;;
70800;SDS011;59616;52.170;5.386;2023-04-25T07:37:58;7.95;;;1.60;;
70800;SDS011;59616;52.170;5.386;2023-04-25T07:40:25;8.00;;;1.38;;
70800;SDS011;59616;52.170;5.386;2023-04-25T07:42:58;15.15;;;1.50;;
70800;SDS011;59616;52.170;5.386;2023-04-25T07:45:33;10.80;;;1.63;;
70800;SDS011;59616;52.170;5.386;2023-04-25T07:48:01;9.35;;;1.27;;
70800;SDS011;59616;52.170;5.386;2023-04-25T07:50:31;6.03;;;1.10;;
70800;SDS011;59616;52.170;5.386;2023-04-25T07:52:59;7.05;;;1.52;;
70800;SDS011;59616;52.170;5.386;2023-04-25T07:55:31;6.32;;;1.08;;
70800;SDS011;59616;52.170;5.386;2023-04-25T07:58:05;7.93;;;0.95;;
70800;SDS011;59616;52.170;5.386;2023-04-25T08:00:33;9.15;;;1.30;;
70800;SDS011;59616;52.170;5.386;2023-04-25T08:03:20;9.10;;;1.10;;
70800;SDS011;59616;52.170;5.386;2023-04-25T08:05:48;7.05;;;1.10;;
70800;SDS011;59616;52.170;5.386;2023-04-25T08:08:17;8.65;;;1.50;;
70800;SDS011;59616;52.170;5.386;2023-04-25T08:10:44;4.95;;;1.10;;
70800;SDS011;59616;52.170;5.386;2023-04-25T08:13:15;10.02;;;1.30;;
70800;SDS011;59616;52.170;5.386;2023-04-25T08:15:43;9.93;;;1.25;;
70800;SDS011;59616;52.170;5.386;2023-04-25T08:18:11;7.03;;;1.27;;
70800;SDS011;59616;52.170;5.386;2023-04-25T08:20:42;5.38;;;0.82;;
70800;SDS011;59616;52.170;5.386;2023-04-25T08:23:10;8.20;;;1.20;;
70800;SDS011;59616;52.170;5.386;2023-04-25T08:25:45;1.77;;;0.60;;
70800;SDS011;59616;52.170;5.386;2023-04-25T08:28:15;3.08;;;0.95;;
70800;SDS011;59616;52.170;5.386;2023-04-25T08:30:43;5.95;;;0.90;;
70800;SDS011;59616;52.170;5.386;2023-04-25T08:33:13;2.95;;;0.77;;
70800;SDS011;59616;52.170;5.386;2023-04-25T08:36:09;4.72;;;0.80;;
70800;SDS011;59616;52.170;5.386;2023-04-25T08:38:37;6.75;;;1.17;;
70800;SDS011;59616;52.170;5.386;2023-04-25T08:41:07;3.97;;;1.00;;
70800;SDS011;59616;52.170;5.386;2023-04-25T08:43:34;6.03;;;0.85;;
70800;SDS011;59616;52.170;5.386;2023-04-25T08:46:01;8.88;;;1.58;;
70800;SDS011;59616;52.170;5.386;2023-04-25T08:48:40;6.55;;;1.10;;
70800;SDS011;59616;52.170;5.386;2023-04-25T08:51:07;2.40;;;0.80;;
70800;SDS011;59616;52.170;5.386;2023-04-25T08:53:37;7.15;;;1.58;;
70800;SDS011;59616;52.170;5.386;2023-04-25T08:56:09;4.07;;;1.10;;
70800;SDS011;59616;52.170;5.386;2023-04-25T08:58:39;6.80;;;0.98;;
70800;SDS011;59616;52.170;5.386;2023-04-25T09:01:07;6.10;;;0.98;;
70800;SDS011;59616;52.170;5.386;2023-04-25T09:03:43;6.00;;;1.23;;
70800;SDS011;59616;52.170;5.386;2023-04-25T09:06:11;4.65;;;0.90;;
70800;SDS011;59616;52.170;5.386;2023-04-25T09:08:38;4.90;;;1.20;;
70800;SDS011;59616;52.170;5.386;2023-04-25T09:11:08;9.43;;;1.88;;
70800;SDS011;59616;52.170;5.386;2023-04-25T09:13:36;4.80;;;1.10;;
70800;SDS011;59616;52.170;5.386;2023-04-25T09:16:09;8.13;;;1.17;;
70800;SDS011;59616;52.170;5.386;2023-04-25T09:18:45;5.50;;;0.95;;
70800;SDS011;59616;52.170;5.386;2023-04-25T09:21:14;8.00;;;1.10;;
70800;SDS011;59616;52.170;5.386;2023-04-25T09:23:45;6.28;;;1.05;;
70800;SDS011;59616;52.170;5.386;2023-04-25T09:26:17;6.97;;;1.23;;
70800;SDS011;59616;52.170;5.386;2023-04-25T09:28:45;6.65;;;1.10;;
70800;SDS011;59616;52.170;5.386;2023-04-25T09:31:21;8.05;;;1.27;;
70800;SDS011;59616;52.170;5.386;2023-04-25T09:33:59;9.63;;;1.30;;
70800;SDS011;59616;52.170;5.386;2023-04-25T09:36:31;5.32;;;1.17;;
70800;SDS011;59616;52.170;5.386;2023-04-25T09:39:12;8.93;;;1.15;;
70800;SDS011;59616;52.170;5.386;2023-04-25T09:41:53;6.30;;;1.20;;
70800;SDS011;59616;52.170;5.386;2023-04-25T09:44:24;6.15;;;0.90;;
70800;SDS011;59616;52.170;5.386;2023-04-25T09:46:54;9.90;;;1.27;;
70800;SDS011;59616;52.170;5.386;2023-04-25T09:49:25;3.28;;;0.88;;
70800;SDS011;59616;52.170;5.386;2023-04-25T09:52:06;12.30;;;1.23;;
70800;SDS011;59616;52.170;5.386;2023-04-25T09:54:42;5.15;;;1.23;;
70800;SDS011;59616;52.170;5.386;2023-04-25T09:57:17;6.60;;;1.02;;
70800;SDS011;59616;52.170;5.386;2023-04-25T09:59:46;10.38;;;1.00;;
70800;SDS011;59616;52.170;5.386;2023-04-25T10:02:14;5.70;;;0.90;;
70800;SDS011;59616;52.170;5.386;2023-04-25T10:04:44;4.22;;;0.80;;
70800;SDS011;59616;52.170;5.386;2023-04-25T10:07:20;4.82;;;0.75;;
70800;SDS011;59616;52.170;5.386;2023-04-25T10:09:49;6.53;;;0.93;;
70800;SDS011;59616;52.170;5.386;2023-04-25T10:12:17;4.20;;;0.82;;
70800;SDS011;59616;52.170;5.386;2023-04-25T10:14:44;6.05;;;1.13;;
70800;SDS011;59616;52.170;5.386;2023-04-25T10:17:12;7.68;;;1.15;;
70800;SDS011;59616;52.170;5.386;2023-04-25T10:19:40;4.43;;;1.20;;
70800;SDS011;59616;52.170;5.386;2023-04-25T10:22:11;4.95;;;0.95;;
70800;SDS011;59616;52.170;5.386;2023-04-25T10:24:39;6.00;;;0.90;;
70800;SDS011;59616;52.170;5.386;2023-04-25T10:27:07;8.93;;;0.88;;
70800;SDS011;59616;52.170;5.386;2023-04-25T10:29:36;4.93;;;0.80;;
70800;SDS011;59616;52.170;5.386;2023-04-25T10:32:04;4.60;;;0.90;;
70800;SDS011;59616;52.170;5.386;2023-04-25T10:34:42;2.95;;;0.68;;
70800;SDS011;59616;52.170;5.386;2023-04-25T10:37:09;6.22;;;0.80;;
70800;SDS011;59616;52.170;5.386;2023-04-25T10:39:38;5.43;;;1.00;;
70800;SDS011;59616;52.170;5.386;2023-04-25T10:42:06;7.78;;;0.95;;
70800;SDS011;59616;52.170;5.386;2023-04-25T10:44:34;5.43;;;0.80;;
70800;SDS011;59616;52.170;5.386;2023-04-25T10:47:01;5.85;;;1.00;;
70800;SDS011;59616;52.170;5.386;2023-04-25T10:49:34;6.18;;;1.13;;
70800;SDS011;59616;52.170;5.386;2023-04-25T10:52:17;6.60;;;1.08;;
70800;SDS011;59616;52.170;5.386;2023-04-25T10:54:48;6.15;;;1.30;;
70800;SDS011;59616;52.170;5.386;2023-04-25T10:57:31;3.17;;;1.15;;
70800;SDS011;59616;52.170;5.386;2023-04-25T11:02:46;7.85;;;0.95;;
70800;SDS011;59616;52.170;5.386;2023-04-25T11:07:55;7.03;;;1.08;;
70800;SDS011;59616;52.170;5.386;2023-04-25T11:10:33;9.27;;;1.35;;
70800;SDS011;59616;52.170;5.386;2023-04-25T11:13:03;10.60;;;1.30;;
70800;SDS011;59616;52.170;5.386;2023-04-25T11:15:31;6.28;;;1.10;;
70800;SDS011;59616;52.170;5.386;2023-04-25T11:17:58;5.10;;;1.00;;
70800;SDS011;59616;52.170;5.386;2023-04-25T11:20:26;7.15;;;1.30;;
70800;SDS011;59616;52.170;5.386;2023-04-25T11:22:57;4.07;;;0.68;;
70800;SDS011;59616;52.170;5.386;2023-04-25T11:25:25;4.72;;;1.45;;
70800;SDS011;59616;52.170;5.386;2023-04-25T11:27:54;7.88;;;1.30;;
70800;SDS011;59616;52.170;5.386;2023-04-25T11:30:22;4.80;;;1.45;;
70800;SDS011;59616;52.170;5.386;2023-04-25T11:32:50;6.30;;;1.10;;
70800;SDS011;59616;52.170;5.386;2023-04-25T11:35:21;7.45;;;1.35;;
70800;SDS011;59616;52.170;5.386;2023-04-25T11:37:49;6.68;;;1.33;;
70800;SDS011;59616;52.170;5.386;2023-04-25T11:40:17;8.70;;;1.35;;
70800;SDS011;59616;52.170;5.386;2023-04-25T11:42:45;5.93;;;1.10;;
70800;SDS011;59616;52.170;5.386;2023-04-25T11:45:12;5.65;;;1.00;;
70800;SDS011;59616;52.170;5.386;2023-04-25T11:47:40;7.45;;;1.20;;
70800;SDS011;59616;52.170;5.386;2023-04-25T11:50:07;6.72;;;1.20;;
70800;SDS011;59616;52.170;5.386;2023-04-25T11:52:45;6.00;;;1.00;;
70800;SDS011;59616;52.170;5.386;2023-04-25T11:55:13;4.53;;;1.00;;
70800;SDS011;59616;52.170;5.386;2023-04-25T11:57:42;4.82;;;1.20;;
70800;SDS011;59616;52.170;5.386;2023-04-25T12:00:13;7.20;;;1.40;;
70800;SDS011;59616;52.170;5.386;2023-04-25T12:02:45;5.88;;;0.93;;
70800;SDS011;59616;52.170;5.386;2023-04-25T12:05:13;7.88;;;1.00;;
70800;SDS011;59616;52.170;5.386;2023-04-25T12:07:58;7.80;;;1.10;;
70800;SDS011;59616;52.170;5.386;2023-04-25T12:10:37;3.22;;;0.80;;
70800;SDS011;59616;52.170;5.386;2023-04-25T12:13:21;4.28;;;1.00;;
70800;SDS011;59616;52.170;5.386;2023-04-25T12:15:49;6.07;;;1.00;;
70800;SDS011;59616;52.170;5.386;2023-04-25T12:18:20;7.88;;;1.13;;
70800;SDS011;59616;52.170;5.386;2023-04-25T12:20:47;5.15;;;1.00;;
70800;SDS011;59616;52.170;5.386;2023-04-25T12:23:15;5.22;;;0.88;;
70800;SDS011;59616;52.170;5.386;2023-04-25T12:25:42;6.75;;;1.10;;
70800;SDS011;59616;52.170;5.386;2023-04-25T12:28:19;5.78;;;1.52;;
70800;SDS011;59616;52.170;5.386;2023-04-25T12:33:20;7.80;;;1.15;;
70800;SDS011;59616;52.170;5.386;2023-04-25T12:35:48;3.97;;;0.98;;
70800;SDS011;59616;52.170;5.386;2023-04-25T12:38:35;4.15;;;0.80;;
70800;SDS011;59616;52.170;5.386;2023-04-25T12:41:02;3.45;;;0.90;;
70800;SDS011;59616;52.170;5.386;2023-04-25T12:43:29;4.90;;;1.00;;
70800;SDS011;59616;52.170;5.386;2023-04-25T12:45:57;6.68;;;0.98;;
70800;SDS011;59616;52.170;5.386;2023-04-25T12:48:24;4.95;;;1.27;;
70800;SDS011;59616;52.170;5.386;2023-04-25T12:50:51;5.03;;;0.90;;
70800;SDS011;59616;52.170;5.386;2023-04-25T12:53:19;4.78;;;0.82;;
70800;SDS011;59616;52.170;5.386;2023-04-25T12:55:47;4.10;;;0.88;;
70800;SDS011;59616;52.170;5.386;2023-04-25T12:58:14;2.20;;;0.60;;
70800;SDS011;59616;52.170;5.386;2023-04-25T13:00:42;4.75;;;0.90;;
70800;SDS011;59616;52.170;5.386;2023-04-25T13:03:11;4.05;;;0.95;;
70800;SDS011;59616;52.170;5.386;2023-04-25T13:05:39;7.22;;;1.00;;
70800;SDS011;59616;52.170;5.386;2023-04-25T13:08:06;7.20;;;1.20;;
70800;SDS011;59616;52.170;5.386;2023-04-25T13:10:34;5.80;;;1.48;;
70800;SDS011;59616;52.170;5.386;2023-04-25T13:13:02;3.42;;;0.90;;
70800;SDS011;59616;52.170;5.386;2023-04-25T13:15:29;5.95;;;0.90;;
70800;SDS011;59616;52.170;5.386;2023-04-25T13:17:57;4.85;;;0.98;;
70800;SDS011;59616;52.170;5.386;2023-04-25T13:20:24;4.75;;;0.90;;
70800;SDS011;59616;52.170;5.386;2023-04-25T13:22:51;5.75;;;0.90;;
70800;SDS011;59616;52.170;5.386;2023-04-25T13:25:19;9.80;;;1.17;;
70800;SDS011;59616;52.170;5.386;2023-04-25T13:27:47;3.72;;;0.80;;
70800;SDS011;59616;52.170;5.386;2023-04-25T13:30:15;3.35;;;0.73;;
70800;SDS011;59616;52.170;5.386;2023-04-25T13:32:42;5.35;;;1.20;;
70800;SDS011;59616;52.170;5.386;2023-04-25T13:35:10;4.80;;;0.90;;
70800;SDS011;59616;52.170;5.386;2023-04-25T13:37:38;3.67;;;0.80;;
70800;SDS011;59616;52.170;5.386;2023-04-25T13:40:06;6.10;;;1.10;;
70800;SDS011;59616;52.170;5.386;2023-04-25T13:42:36;4.97;;;0.90;;
70800;SDS011;59616;52.170;5.386;2023-04-25T13:45:03;4.63;;;1.00;;
70800;SDS011;59616;52.170;5.386;2023-04-25T13:47:30;4.97;;;0.90;;
70800;SDS011;59616;52.170;5.386;2023-04-25T13:49:57;3.38;;;0.80;;
70800;SDS011;59616;52.170;5.386;2023-04-25T13:52:25;3.03;;;1.15;;
70800;SDS011;59616;52.170;5.386;2023-04-25T13:54:53;5.97;;;0.98;;
70800;SDS011;59616;52.170;5.386;2023-04-25T13:57:20;5.80;;;1.30;;
70800;SDS011;59616;52.170;5.386;2023-04-25T13:59:48;3.92;;;1.00;;
70800;SDS011;59616;52.170;5.386;2023-04-25T14:02:15;3.78;;;1.00;;
70800;SDS011;59616;52.170;5.386;2023-04-25T14:04:42;7.82;;;1.20;;
70800;SDS011;59616;52.170;5.386;2023-04-25T14:07:09;4.20;;;0.90;;
70800;SDS011;59616;52.170;5.386;2023-04-25T14:09:37;6.70;;;1.38;;
70800;SDS011;59616;52.170;5.386;2023-04-25T14:12:04;7.90;;;1.30;;
70800;SDS011;59616;52.170;5.386;2023-04-25T14:14:32;5.50;;;0.88;;
70800;SDS011;59616;52.170;5.386;2023-04-25T14:16:59;6.13;;;1.38;;
70800;SDS011;59616;52.170;5.386;2023-04-25T14:19:26;3.58;;;1.20;;
70800;SDS011;59616;52.170;5.386;2023-04-25T14:21:55;3.03;;;1.00;;
70800;SDS011;59616;52.170;5.386;2023-04-25T14:24:22;4.60;;;1.00;;
70800;SDS011;59616;52.170;5.386;2023-04-25T14:26:49;6.22;;;1.13;;
70800;SDS011;59616;52.170;5.386;2023-04-25T14:29:16;5.63;;;1.00;;
70800;SDS011;59616;52.170;5.386;2023-04-25T14:31:44;3.53;;;0.93;;
70800;SDS011;59616;52.170;5.386;2023-04-25T14:34:11;6.90;;;1.08;;
70800;SDS011;59616;52.170;5.386;2023-04-25T14:36:38;5.55;;;1.05;;
70800;SDS011;59616;52.170;5.386;2023-04-25T14:39:06;4.93;;;1.13;;
70800;SDS011;59616;52.170;5.386;2023-04-25T14:41:33;6.20;;;1.23;;
70800;SDS011;59616;52.170;5.386;2023-04-25T14:44:00;2.53;;;0.70;;
70800;SDS011;59616;52.170;5.386;2023-04-25T14:46:27;7.22;;;1.40;;
70800;SDS011;59616;52.170;5.386;2023-04-25T14:48:55;5.95;;;1.30;;
70800;SDS011;59616;52.170;5.386;2023-04-25T14:51:22;6.88;;;1.13;;
70800;SDS011;59616;52.170;5.386;2023-04-25T14:53:50;4.65;;;1.08;;
70800;SDS011;59616;52.170;5.386;2023-04-25T14:56:18;6.88;;;1.27;;
70800;SDS011;59616;52.170;5.386;2023-04-25T14:58:45;6.07;;;0.90;;
70800;SDS011;59616;52.170;5.386;2023-04-25T15:01:13;5.13;;;1.00;;
70800;SDS011;59616;52.170;5.386;2023-04-25T15:03:41;5.07;;;0.98;;
70800;SDS011;59616;52.170;5.386;2023-04-25T15:06:08;6.20;;;1.00;;
70800;SDS011;59616;52.170;5.386;2023-04-25T15:08:36;4.70;;;1.00;;
70800;SDS011;59616;52.170;5.386;2023-04-25T15:11:03;5.63;;;1.00;;
70800;SDS011;59616;52.170;5.386;2023-04-25T15:13:31;2.33;;;0.90;;
70800;SDS011;59616;52.170;5.386;2023-04-25T15:15:58;3.15;;;1.00;;